Time;durP1;ratioP1;P1;durP2;ratioP2;P2;SDS_P1;SDS_P2;PMS_P1;PMS_P2;Temp;Humidity;BMP_temperature;BMP_pressure;BME280_temperature;BME280_humidity;BME280_pressure;Samples;Min_cycle;Max_cycle;Signal;HPM_P1;HPM_P2
2023/02/01 00:01:18;;;;;;;8.10;4.03;;;2.50;98.00;;;;;;5045171;28;20024;-65
2023/02/01 00:03:44;;;;;;;8.45;4.03;;;2.50;98.00;;;;;;5054575;28;20025;-65
2023/02/01 00:06:09;;;;;;;7.82;3.67;;;2.60;98.00;;;;;;5050786;28;20451;-66
2023/02/01 00:08:35;;;;;;;8.02;4.43;;;2.50;98.00;;;;;;5041043;28;20103;-66
2023/02/01 00:11:06;;;;;;;6.85;3.88;;;2.60;98.00;;;;;;5043030;28;20021;-66
2023/02/01 00:13:34;;;;;;;6.88;3.78;;;2.50;98.00;;;;;;5044222;28;20056;-66
2023/02/01 00:16:03;;;;;;;7.55;3.60;;;2.50;98.00;;;;;;5057101;28;20344;-66
2023/02/01 00:18:29;;;;;;;6.88;4.10;;;2.50;98.00;;;;;;5041387;28;20373;-65
2023/02/01 00:20:55;;;;;;;8.90;4.10;;;2.60;98.00;;;;;;5026182;28;20032;-65
2023/02/01 00:23:20;;;;;;;6.40;3.67;;;2.60;98.00;;;;;;5042820;28;20029;-67
2023/02/01 00:25:46;;;;;;;7.50;3.45;;;2.60;98.00;;;;;;5049993;28;20041;-66
2023/02/01 00:28:12;;;;;;;6.32;3.78;;;2.60;98.00;;;;;;5050053;28;20036;-66
2023/02/01 00:30:38;;;;;;;6.38;3.53;;;2.60;98.00;;;;;;5041612;28;20028;-66
2023/02/01 00:33:04;;;;;;;5.97;3.47;;;2.60;98.00;;;;;;5047064;28;20025;-66
2023/02/01 00:35:29;;;;;;;5.57;3.33;;;2.60;98.00;;;;;;5047649;28;20108;-66
2023/02/01 00:37:58;;;;;;;6.40;3.60;;;2.60;98.00;;;;;;5053251;28;20033;-66
2023/02/01 00:40:23;;;;;;;7.25;3.33;;;2.60;98.00;;;;;;5040975;28;20029;-66
2023/02/01 00:42:49;;;;;;;7.93;3.60;;;2.60;98.00;;;;;;5039868;28;20326;-66
2023/02/01 00:45:15;;;;;;;7.63;3.72;;;2.60;98.00;;;;;;5044284;28;20041;-66
2023/02/01 00:47:40;;;;;;;5.32;3.20;;;2.60;98.00;;;;;;5039651;28;20028;-66
2023/02/01 00:50:06;;;;;;;6.05;3.28;;;2.60;98.00;;;;;;5047427;28;20112;-66
2023/02/01 00:52:32;;;;;;;6.53;3.03;;;2.60;98.00;;;;;;5044180;28;20417;-66
2023/02/01 00:54:57;;;;;;;5.30;3.20;;;2.60;98.00;;;;;;5046342;28;20302;-66
2023/02/01 00:57:23;;;;;;;5.72;3.05;;;2.60;98.00;;;;;;5047945;28;20414;-67
2023/02/01 00:59:48;;;;;;;5.70;3.05;;;2.60;98.00;;;;;;5043935;28;20311;-66
2023/02/01 01:02:14;;;;;;;5.90;3.10;;;2.60;98.00;;;;;;5048425;28;20033;-66
2023/02/01 01:04:40;;;;;;;4.95;2.75;;;2.60;98.00;;;;;;5045272;28;20025;-66
2023/02/01 01:07:06;;;;;;;6.22;2.58;;;2.60;98.00;;;;;;5044076;28;20022;-66
2023/02/01 01:09:31;;;;;;;5.35;2.85;;;2.70;98.00;;;;;;5038420;28;20029;-67
2023/02/01 01:12:02;;;;;;;4.63;2.63;;;2.70;98.00;;;;;;5039447;28;20635;-66
2023/02/01 01:14:30;;;;;;;4.63;2.60;;;2.70;98.00;;;;;;5041131;28;20314;-66
2023/02/01 01:16:55;;;;;;;5.03;2.88;;;2.80;98.00;;;;;;5056368;28;20021;-66
2023/02/01 01:19:21;;;;;;;5.60;2.75;;;2.80;98.00;;;;;;5037073;28;20384;-67
2023/02/01 01:21:47;;;;;;;6.10;2.50;;;2.80;98.00;;;;;;5037469;28;20041;-67
2023/02/01 01:24:12;;;;;;;4.25;2.53;;;2.80;98.00;;;;;;5037354;28;20076;-66
2023/02/01 01:26:38;;;;;;;4.47;2.45;;;2.80;98.00;;;;;;5037356;28;20307;-66
2023/02/01 01:29:03;;;;;;;4.65;2.63;;;2.80;98.00;;;;;;5044897;28;20240;-66
2023/02/01 01:31:30;;;;;;;5.47;2.72;;;2.80;98.00;;;;;;5052103;28;20029;-66
2023/02/01 01:33:58;;;;;;;5.07;2.58;;;2.80;98.00;;;;;;5046115;28;20095;-67
2023/02/01 01:36:25;;;;;;;4.82;2.65;;;2.80;98.00;;;;;;5038338;28;20018;-67
2023/02/01 01:38:51;;;;;;;9.32;3.25;;;2.80;97.80;;;;;;5034832;28;20431;-67
2023/02/01 01:41:20;;;;;;;4.30;2.75;;;2.70;98.00;;;;;;5036260;28;20048;-67
2023/02/01 01:43:54;;;;;;;4.70;2.47;;;2.70;97.80;;;;;;5045137;28;20103;-67
2023/02/01 01:46:32;;;;;;;4.90;2.97;;;2.70;97.50;;;;;;5049732;28;20025;-67
2023/02/01 01:49:03;;;;;;;4.93;2.85;;;2.70;97.00;;;;;;5048861;28;20041;-67
2023/02/01 01:51:31;;;;;;;4.80;2.60;;;2.70;96.90;;;;;;5040790;28;20021;-67
2023/02/01 01:54:06;;;;;;;4.63;2.67;;;2.70;96.80;;;;;;5041735;28;20025;-67
2023/02/01 01:56:33;;;;;;;6.53;2.60;;;2.70;96.90;;;;;;5035756;28;20052;-67
2023/02/01 01:59:00;;;;;;;4.57;2.63;;;2.70;96.60;;;;;;5035490;28;20029;-67
2023/02/01 02:01:26;;;;;;;5.13;2.88;;;2.80;97.70;;;;;;5047053;28;20034;-67
2023/02/01 02:03:53;;;;;;;5.25;2.90;;;2.90;97.50;;;;;;5049314;28;20114;-67
2023/02/01 02:06:32;;;;;;;4.85;2.90;;;2.90;97.60;;;;;;5046576;28;20321;-67
2023/02/01 02:09:03;;;;;;;5.38;2.95;;;2.90;97.70;;;;;;5047007;28;20465;-67
2023/02/01 02:11:29;;;;;;;4.78;2.78;;;2.90;97.40;;;;;;5045914;28;20551;-67
2023/02/01 02:13:57;;;;;;;5.85;3.13;;;2.80;97.40;;;;;;5046384;28;20044;-67
2023/02/01 02:17:03;;;;;;;6.05;2.97;;;2.90;97.40;;;;;;5042474;28;20052;-67
2023/02/01 02:19:34;;;;;;;7.15;3.10;;;2.90;97.50;;;;;;5046919;28;20053;-67
2023/02/01 02:22:33;;;;;;;5.50;2.95;;;2.90;97.70;;;;;;5035626;28;20437;-67
2023/02/01 02:25:17;;;;;;;5.50;3.15;;;2.90;97.90;;;;;;5043247;28;20445;-67
2023/02/01 02:27:52;;;;;;;6.97;3.33;;;2.80;97.50;;;;;;5054203;28;20033;-67
2023/02/01 02:30:55;;;;;;;6.57;2.97;;;2.90;97.70;;;;;;5046762;28;20028;-67
2023/02/01 02:33:39;;;;;;;5.03;2.83;;;2.90;97.80;;;;;;5035629;28;20027;-67
2023/02/01 02:36:10;;;;;;;5.27;2.90;;;2.90;98.00;;;;;;5053534;28;20099;-67
2023/02/01 02:39:15;;;;;;;5.82;2.95;;;2.90;98.00;;;;;;5038893;28;20361;-68
2023/02/01 02:47:57;;;;;;;6.97;3.20;;;2.80;97.80;;;;;;5036446;28;20091;-68
2023/02/01 03:04:30;;;;;;;5.18;3.10;;;2.60;94.40;;;;;;5035543;28;20300;-67
2023/02/01 03:06:55;;;;;;;4.55;2.63;;;2.50;94.10;;;;;;5038811;28;20121;-68
2023/02/01 03:09:29;;;;;;;4.50;2.60;;;2.50;93.40;;;;;;5043886;28;20363;-67
2023/02/01 03:14:51;;;;;;;4.63;2.67;;;2.60;94.70;;;;;;5044289;28;20043;-67
2023/02/01 03:17:25;;;;;;;4.90;2.70;;;2.60;94.60;;;;;;5035776;28;20406;-67
2023/02/01 03:19:53;;;;;;;6.32;2.80;;;2.60;94.90;;;;;;5045167;28;20024;-67
2023/02/01 03:22:24;;;;;;;4.80;2.88;;;2.70;95.30;;;;;;5035307;28;20104;-67
2023/02/01 03:24:56;;;;;;;7.20;3.78;;;2.60;95.60;;;;;;5038067;28;20449;-66
2023/02/01 03:27:25;;;;;;;5.70;2.83;;;2.60;95.40;;;;;;5038331;28;20369;-67
2023/02/01 03:30:00;;;;;;;7.45;3.10;;;2.60;94.70;;;;;;5034861;28;20068;-67
2023/02/01 03:32:26;;;;;;;5.32;3.00;;;2.70;95.20;;;;;;5044905;28;20029;-67
2023/02/01 03:34:53;;;;;;;5.40;3.10;;;2.70;95.10;;;;;;5047151;28;20021;-67
2023/02/01 03:37:27;;;;;;;5.80;3.25;;;2.70;95.00;;;;;;5032921;28;20030;-67
2023/02/01 03:39:59;;;;;;;;;;;2.60;94.80;;;;;;5037454;28;20025;-67
2023/02/01 03:42:34;;;;;;;5.50;3.15;;;2.60;94.50;;;;;;5035390;28;19917;-67
2023/02/01 03:45:13;;;;;;;4.97;2.90;;;2.60;94.20;;;;;;5044634;28;20017;-67
2023/02/01 03:47:43;;;;;;;5.78;3.47;;;2.60;93.70;;;;;;5053479;28;20078;-67
2023/02/01 03:50:13;;;;;;;5.20;3.13;;;2.50;93.20;;;;;;5042837;28;20064;-67
2023/02/01 03:52:53;;;;;;;7.45;3.70;;;2.50;92.70;;;;;;5035051;28;20036;-67
2023/02/01 03:55:22;;;;;;;6.22;3.55;;;2.40;92.10;;;;;;5034256;28;20026;-66
2023/02/01 03:58:02;;;;;;;5.85;3.53;;;2.40;91.70;;;;;;5050063;28;20104;-67
2023/02/01 04:00:28;;;;;;;5.90;3.47;;;2.40;91.10;;;;;;5051607;28;20033;-67
2023/02/01 04:02:54;;;;;;;7.70;3.50;;;2.40;91.20;;;;;;5039955;28;20318;-67
2023/02/01 04:05:21;;;;;;;5.50;3.58;;;2.40;91.10;;;;;;5041658;28;20033;-67
2023/02/01 04:07:47;;;;;;;7.45;4.00;;;2.40;91.60;;;;;;5035456;28;20068;-67
2023/02/01 04:10:13;;;;;;;5.85;3.50;;;2.40;91.80;;;;;;5044813;28;20025;-66
2023/02/01 04:12:40;;;;;;;7.20;3.33;;;2.30;91.70;;;;;;5050337;28;20313;-67
2023/02/01 04:15:06;;;;;;;6.68;3.75;;;2.30;91.10;;;;;;5053915;28;20021;-66
2023/02/01 04:17:32;;;;;;;6.07;3.83;;;2.40;91.90;;;;;;5054458;28;20032;-67
2023/02/01 04:19:57;;;;;;;5.53;3.28;;;2.40;92.50;;;;;;5042707;28;20021;-66
2023/02/01 04:22:23;;;;;;;6.00;3.88;;;2.40;93.20;;;;;;5045033;28;20036;-67
2023/02/01 04:24:49;;;;;;;5.97;3.22;;;2.50;93.90;;;;;;5048520;28;20117;-67
2023/02/01 04:27:15;;;;;;;5.72;3.50;;;2.50;93.90;;;;;;5049072;28;20017;-67
2023/02/01 04:29:41;;;;;;;5.85;3.40;;;2.50;94.40;;;;;;5045780;28;20464;-67
2023/02/01 04:32:06;;;;;;;5.68;2.90;;;2.50;94.20;;;;;;5042783;28;20027;-67
2023/02/01 04:34:32;;;;;;;5.72;3.20;;;2.50;94.80;;;;;;5043110;28;20093;-67
2023/02/01 04:36:57;;;;;;;5.45;2.80;;;2.60;95.60;;;;;;5042237;28;20333;-66
2023/02/01 04:39:23;;;;;;;5.88;3.47;;;2.60;96.30;;;;;;5049954;28;20056;-67
2023/02/01 04:41:48;;;;;;;4.57;2.80;;;2.60;96.20;;;;;;5041363;28;20041;-67
2023/02/01 04:44:17;;;;;;;4.75;3.17;;;2.60;96.80;;;;;;5046859;28;20024;-67
2023/02/01 04:46:43;;;;;;;5.43;2.70;;;2.60;96.50;;;;;;5041774;28;20064;-66
2023/02/01 04:49:10;;;;;;;5.72;3.17;;;2.60;97.30;;;;;;5037019;28;20100;-66
2023/02/01 04:51:35;;;;;;;6.88;3.45;;;2.60;96.70;;;;;;5037680;28;20021;-67
2023/02/01 04:54:01;;;;;;;5.75;3.05;;;2.60;97.00;;;;;;5044286;28;20025;-67
2023/02/01 04:56:27;;;;;;;4.25;2.63;;;2.70;97.10;;;;;;5046595;28;20029;-66
2023/02/01 04:58:52;;;;;;;5.00;2.60;;;2.70;97.30;;;;;;5036952;28;20082;-67
2023/02/01 05:01:18;;;;;;;7.00;3.53;;;2.60;97.10;;;;;;5052589;28;20037;-67
2023/02/01 05:03:44;;;;;;;6.63;3.17;;;2.60;96.50;;;;;;5042485;28;20379;-67
2023/02/01 05:06:09;;;;;;;9.48;4.05;;;2.60;97.40;;;;;;5041103;28;20034;-66
2023/02/01 05:08:35;;;;;;;5.43;2.67;;;2.70;97.50;;;;;;5041803;28;20029;-68
2023/02/01 05:11:02;;;;;;;5.65;2.85;;;2.70;97.40;;;;;;5050407;28;20315;-67
2023/02/01 05:16:13;;;;;;;6.03;3.22;;;2.70;97.90;;;;;;5039998;28;20086;-67
2023/02/01 05:18:38;;;;;;;5.75;3.00;;;2.70;98.00;;;;;;5051404;28;20025;-67
2023/02/01 05:21:07;;;;;;;8.35;2.67;;;2.70;98.00;;;;;;5039977;28;20021;-66
2023/02/01 05:24:09;;;;;;;5.72;2.60;;;2.80;98.00;;;;;;5042887;28;20108;-66
2023/02/01 05:26:18;;;;;;;5.15;2.75;;;2.80;98.00;;;;;;5037475;28;20110;-66
2023/02/01 05:28:43;;;;;;;5.72;2.65;;;2.80;98.00;;;;;;5037432;28;20069;-67
2023/02/01 05:31:12;;;;;;;4.57;2.38;;;2.80;98.00;;;;;;5036258;28;20108;-67
2023/02/01 05:33:37;;;;;;;6.22;3.10;;;2.80;98.00;;;;;;5041037;28;20025;-68
2023/02/01 05:36:03;;;;;;;5.82;2.70;;;2.90;98.00;;;;;;5040037;28;20045;-68
2023/02/01 05:38:32;;;;;;;4.07;2.20;;;2.90;98.00;;;;;;5036218;28;20048;-67
2023/02/01 05:40:57;;;;;;;3.78;2.03;;;2.90;98.00;;;;;;5042266;28;20373;-68
2023/02/01 05:43:23;;;;;;;3.78;1.92;;;2.90;98.00;;;;;;5037234;28;20033;-67
2023/02/01 05:45:48;;;;;;;5.18;2.60;;;2.90;98.00;;;;;;5045182;28;20414;-67
2023/02/01 05:48:14;;;;;;;4.63;2.50;;;2.90;98.00;;;;;;5042151;28;20025;-68
2023/02/01 05:50:39;;;;;;;5.75;2.78;;;2.90;98.00;;;;;;5046166;28;20406;-67
2023/02/01 05:53:05;;;;;;;6.72;2.78;;;2.90;98.00;;;;;;5038133;28;20418;-67
2023/02/01 05:55:31;;;;;;;4.70;2.50;;;2.90;98.00;;;;;;5038469;28;20029;-68
2023/02/01 05:57:57;;;;;;;7.05;2.80;;;2.90;98.00;;;;;;5036642;28;20056;-68
2023/02/01 06:00:23;;;;;;;6.60;2.53;;;3.00;98.00;;;;;;5043914;28;20029;-68
2023/02/01 06:02:48;;;;;;;5.13;2.42;;;3.00;98.00;;;;;;5042607;28;20414;-67
2023/02/01 06:05:16;;;;;;;6.13;2.83;;;3.00;98.00;;;;;;5036431;28;20038;-67
2023/02/01 06:07:42;;;;;;;6.07;2.97;;;3.00;98.00;;;;;;5036141;28;20490;-68
2023/02/01 06:10:09;;;;;;;4.57;2.35;;;3.00;98.00;;;;;;5036480;28;20103;-68
2023/02/01 06:12:35;;;;;;;5.15;2.40;;;3.00;98.00;;;;;;5040982;28;20313;-68
2023/02/01 06:15:01;;;;;;;6.45;3.08;;;3.00;98.00;;;;;;5036408;28;20070;-68
2023/02/01 06:17:26;;;;;;;6.68;3.10;;;3.10;98.00;;;;;;5050929;28;20124;-67
2023/02/01 06:19:52;;;;;;;4.40;2.58;;;3.00;98.00;;;;;;5035962;28;20052;-68
2023/02/01 06:22:17;;;;;;;4.97;2.45;;;3.00;98.00;;;;;;5045421;28;20025;-67
2023/02/01 06:24:43;;;;;;;6.35;2.25;;;3.10;98.00;;;;;;5035033;28;20041;-68
2023/02/01 06:27:09;;;;;;;5.20;2.60;;;3.10;98.00;;;;;;5036426;28;20087;-67
2023/02/01 06:29:35;;;;;;;5.78;3.05;;;3.00;98.00;;;;;;5052420;28;20021;-67
2023/02/01 06:32:00;;;;;;;5.75;3.10;;;2.90;98.00;;;;;;5054956;28;20074;-68
2023/02/01 06:34:26;;;;;;;7.97;4.00;;;2.70;97.50;;;;;;5046778;28;20033;-68
2023/02/01 06:36:52;;;;;;;8.18;3.47;;;2.60;95.90;;;;;;5056245;28;20075;-68
2023/02/01 06:39:17;;;;;;;7.25;3.60;;;2.60;96.20;;;;;;5053621;28;20068;-68
2023/02/01 06:41:46;;;;;;;6.40;3.38;;;2.50;95.40;;;;;;5049593;28;20470;-67
2023/02/01 06:44:12;;;;;;;8.10;3.80;;;2.50;96.70;;;;;;5035802;28;20379;-68
2023/02/01 06:46:37;;;;;;;7.97;3.58;;;2.50;97.40;;;;;;5034631;28;20167;-67
2023/02/01 06:49:03;;;;;;;6.50;3.00;;;2.50;96.10;;;;;;5035631;28;20334;-68
2023/02/01 06:51:29;;;;;;;5.15;3.10;;;2.60;97.30;;;;;;5038593;28;20033;-68
2023/02/01 06:53:55;;;;;;;5.03;2.80;;;2.50;97.30;;;;;;5042652;28;20025;-67
2023/02/01 06:56:21;;;;;;;6.45;3.58;;;2.50;97.80;;;;;;5036008;28;20121;-67
2023/02/01 06:58:47;;;;;;;6.78;2.90;;;2.60;98.00;;;;;;5035366;28;20112;-67
2023/02/01 07:01:14;;;;;;;4.97;2.85;;;2.60;98.00;;;;;;5034747;28;20471;-67
2023/02/01 07:03:40;;;;;;;5.47;3.50;;;2.70;98.00;;;;;;5054299;28;20113;-68
2023/02/01 07:06:07;;;;;;;8.23;3.58;;;2.60;96.60;;;;;;5055793;28;20602;-68
2023/02/01 07:08:35;;;;;;;6.47;4.15;;;2.50;94.90;;;;;;5033364;28;20083;-68
2023/02/01 07:11:06;;;;;;;8.30;4.20;;;2.40;93.60;;;;;;5049154;28;20033;-67
2023/02/01 07:13:32;;;;;;;8.82;3.90;;;2.40;93.60;;;;;;5051403;28;20025;-67
2023/02/01 07:16:01;;;;;;;7.85;4.75;;;2.40;93.20;;;;;;5036515;28;20020;-67
2023/02/01 07:18:32;;;;;;;7.57;4.63;;;2.40;94.40;;;;;;5043449;28;20120;-68
2023/02/01 07:20:58;;;;;;;7.22;4.50;;;2.40;93.90;;;;;;5063848;28;20021;-67
2023/02/01 07:23:24;;;;;;;6.47;3.13;;;2.40;94.80;;;;;;5044419;28;20048;-68
2023/02/01 07:26:04;;;;;;;6.57;3.83;;;2.40;95.50;;;;;;5056002;28;20063;-67
2023/02/01 07:28:33;;;;;;;7.43;4.70;;;2.40;95.20;;;;;;5039573;28;20552;-67
2023/02/01 07:31:18;;;;;;;7.85;3.58;;;2.50;95.50;;;;;;5043702;28;20108;-67
2023/02/01 07:33:44;;;;;;;10.60;4.22;;;2.50;96.30;;;;;;5048916;28;20027;-67
2023/02/01 07:36:12;;;;;;;5.47;2.92;;;2.50;95.40;;;;;;5060939;28;20024;-67
2023/02/01 07:38:38;;;;;;;5.47;3.28;;;2.50;95.50;;;;;;5055162;28;20033;-67
2023/02/01 07:41:08;;;;;;;7.13;3.92;;;2.50;95.10;;;;;;5043126;28;20411;-67
2023/02/01 07:43:34;;;;;;;6.97;4.57;;;2.40;94.50;;;;;;5040794;28;20036;-67
2023/02/01 07:46:01;;;;;;;7.15;4.00;;;2.40;94.00;;;;;;5045236;28;20138;-68
2023/02/01 07:48:27;;;;;;;5.20;3.45;;;2.40;94.30;;;;;;5048501;28;20116;-67
2023/02/01 07:51:06;;;;;;;8.07;4.45;;;2.40;94.90;;;;;;5045214;28;20359;-67
2023/02/01 07:53:33;;;;;;;7.93;4.03;;;2.50;94.00;;;;;;5058177;28;20029;-67
2023/02/01 07:55:58;;;;;;;6.78;4.05;;;2.50;95.40;;;;;;5057887;28;20361;-68
2023/02/01 07:58:25;;;;;;;6.68;4.20;;;2.50;95.20;;;;;;5059118;28;20037;-67
2023/02/01 08:03:35;;;;;;;7.60;3.55;;;2.60;97.90;;;;;;5054808;28;20108;-67
2023/02/01 08:06:07;;;;;;;7.40;3.30;;;2.70;98.00;;;;;;5050987;28;20386;-67
2023/02/01 08:08:32;;;;;;;12.02;4.15;;;2.70;98.00;;;;;;5037504;28;20029;-67
2023/02/01 08:10:59;;;;;;;6.55;3.47;;;2.80;98.00;;;;;;5043098;28;20420;-67
2023/02/01 08:13:25;;;;;;;6.72;3.33;;;2.80;98.00;;;;;;5043320;28;20056;-67
2023/02/01 08:15:50;;;;;;;7.20;3.60;;;2.90;98.00;;;;;;5050983;28;20048;-67
2023/02/01 08:18:17;;;;;;;6.72;4.03;;;2.90;98.00;;;;;;5038396;28;20040;-67
2023/02/01 08:20:47;;;;;;;7.07;4.60;;;2.90;98.00;;;;;;5039790;28;20515;-66
2023/02/01 08:23:13;;;;;;;7.35;4.40;;;2.90;98.00;;;;;;5037094;28;20033;-66
2023/02/01 08:25:38;;;;;;;7.38;4.00;;;3.00;98.00;;;;;;5041879;28;20048;-66
2023/02/01 08:28:05;;;;;;;7.82;3.92;;;3.10;98.00;;;;;;5039875;28;20131;-68
2023/02/01 08:30:30;;;;;;;7.75;3.92;;;3.10;98.00;;;;;;5044213;28;20025;-68
2023/02/01 08:33:00;;;;;;;4.93;2.80;;;3.10;98.00;;;;;;5045394;28;20105;-67
2023/02/01 08:35:26;;;;;;;6.85;3.80;;;3.10;98.00;;;;;;5041862;28;20524;-68
2023/02/01 08:37:52;;;;;;;6.20;3.25;;;3.10;98.00;;;;;;5036963;28;20037;-68
2023/02/01 08:40:17;;;;;;;6.07;2.67;;;3.20;98.00;;;;;;5036336;28;20082;-67
2023/02/01 08:42:52;;;;;;;6.90;3.30;;;3.20;98.00;;;;;;5047845;28;20303;-67
2023/02/01 08:45:23;;;;;;;6.78;3.08;;;3.20;98.00;;;;;;5053601;28;20025;-68
2023/02/01 08:47:49;;;;;;;9.07;3.60;;;3.20;98.00;;;;;;5057280;28;20021;-68
2023/02/01 08:50:16;;;;;;;9.57;3.80;;;3.20;98.00;;;;;;5053091;28;20119;-67
2023/02/01 08:52:41;;;;;;;5.55;2.97;;;3.20;98.00;;;;;;5040000;28;20051;-68
2023/02/01 08:55:07;;;;;;;7.68;3.22;;;3.20;98.00;;;;;;5039294;28;20033;-68
2023/02/01 08:57:33;;;;;;;9.65;4.55;;;3.20;98.00;;;;;;5056032;28;20156;-68
2023/02/01 09:00:00;;;;;;;10.18;3.55;;;3.20;98.00;;;;;;5054872;28;20079;-68
2023/02/01 09:02:26;;;;;;;6.43;3.20;;;3.30;98.00;;;;;;5037741;28;20048;-67
2023/02/01 09:04:52;;;;;;;11.65;3.15;;;3.40;98.00;;;;;;5044152;28;20037;-68
2023/02/01 09:07:17;;;;;;;7.40;3.28;;;3.30;98.00;;;;;;5055586;28;20033;-68
2023/02/01 09:09:44;;;;;;;12.63;5.82;;;3.30;98.00;;;;;;5044612;28;20027;-68
2023/02/01 09:12:10;;;;;;;7.00;3.40;;;3.30;98.00;;;;;;5054269;28;20033;-67
2023/02/01 09:14:36;;;;;;;12.18;3.30;;;3.20;98.00;;;;;;5038642;28;20458;-68
2023/02/01 09:17:01;;;;;;;8.30;3.17;;;3.10;98.00;;;;;;5056576;28;20060;-68
2023/02/01 09:19:27;;;;;;;7.15;3.47;;;3.10;98.00;;;;;;5049495;28;20037;-68
2023/02/01 09:21:53;;;;;;;9.02;3.53;;;3.20;98.00;;;;;;5037266;28;20037;-68
2023/02/01 09:24:18;;;;;;;6.93;3.20;;;3.30;98.00;;;;;;5042437;28;20041;-68
2023/02/01 09:26:44;;;;;;;10.70;4.28;;;3.30;98.00;;;;;;5043189;28;20299;-68
2023/02/01 09:29:12;;;;;;;9.05;3.53;;;3.40;98.00;;;;;;5049261;28;20025;-67
2023/02/01 09:31:39;;;;;;;9.80;3.20;;;3.40;98.00;;;;;;5037143;28;20029;-68
2023/02/01 09:34:05;;;;;;;10.15;3.60;;;3.40;98.00;;;;;;5036185;28;20064;-68
2023/02/01 09:36:31;;;;;;;9.85;3.33;;;3.50;98.00;;;;;;5046755;28;20021;-68
2023/02/01 09:38:57;;;;;;;11.55;3.83;;;3.40;98.00;;;;;;5049816;28;20453;-68
2023/02/01 09:41:46;;;;;;;11.07;4.80;;;3.40;98.00;;;;;;5051770;28;20060;-68
2023/02/01 09:44:25;;;;;;;9.05;4.07;;;3.40;98.00;;;;;;5045613;28;20020;-68
2023/02/01 09:46:56;;;;;;;10.02;4.03;;;3.40;98.00;;;;;;5046641;28;20111;-68
2023/02/01 09:49:31;;;;;;;10.18;4.53;;;3.40;98.00;;;;;;5050527;28;20029;-68
2023/02/01 09:52:00;;;;;;;11.70;4.03;;;3.50;98.00;;;;;;5035566;28;20442;-68
2023/02/01 09:54:47;;;;;;;10.95;3.50;;;3.50;98.00;;;;;;5034812;28;20099;-68
2023/02/01 09:57:37;;;;;;;10.88;3.20;;;3.40;98.00;;;;;;5038228;28;20421;-68
2023/02/01 10:00:15;;;;;;;12.30;3.40;;;3.60;98.00;;;;;;5035145;28;20036;-68
2023/02/01 10:02:41;;;;;;;14.82;3.35;;;4.00;98.00;;;;;;5042547;28;20369;-68
2023/02/01 10:05:18;;;;;;;10.18;3.22;;;4.50;98.00;;;;;;5035673;28;20026;-68
2023/02/01 10:08:05;;;;;;;8.98;3.03;;;4.80;97.20;;;;;;5041239;28;20033;-68
2023/02/01 10:10:40;;;;;;;12.40;3.38;;;5.40;96.20;;;;;;5040488;28;20445;-68
2023/02/01 10:13:15;;;;;;;12.68;4.22;;;6.20;94.10;;;;;;5046975;28;20516;-68
2023/02/01 10:15:48;;;;;;;9.27;3.20;;;6.50;92.20;;;;;;5036512;28;20489;-68
2023/02/01 10:18:36;;;;;;;11.13;3.67;;;5.80;93.10;;;;;;5055439;28;20039;-68
2023/02/01 10:21:14;;;;;;;9.93;3.65;;;5.30;94.40;;;;;;5046389;28;20300;-68
2023/02/01 10:24:14;;;;;;;10.38;3.85;;;4.90;95.60;;;;;;5033653;28;20063;-68
2023/02/01 10:26:44;;;;;;;11.43;3.80;;;4.70;95.40;;;;;;5052697;28;20106;-68
2023/02/01 10:29:19;;;;;;;10.98;3.50;;;4.40;96.20;;;;;;5038149;28;20336;-68
2023/02/01 10:31:44;;;;;;;10.57;3.58;;;4.50;96.50;;;;;;5043753;28;20429;-68
2023/02/01 10:34:26;;;;;;;10.65;3.70;;;4.60;96.20;;;;;;5046230;28;20021;-68
2023/02/01 10:36:59;;;;;;;12.20;3.40;;;4.90;95.90;;;;;;5038740;28;20156;-68
2023/02/01 10:39:25;;;;;;;16.10;4.60;;;4.80;95.30;;;;;;5034482;28;20033;-68
2023/02/01 10:41:51;;;;;;;15.80;4.90;;;4.60;95.90;;;;;;5035394;28;20035;-68
2023/02/01 10:44:26;;;;;;;9.10;3.15;;;4.60;95.90;;;;;;5037440;28;20099;-68
2023/02/01 10:46:52;;;;;;;14.88;4.32;;;4.60;95.40;;;;;;5051085;28;20083;-68
2023/02/01 10:49:36;;;;;;;14.55;3.67;;;4.60;96.20;;;;;;5040522;28;20041;-68
2023/02/01 10:52:16;;;;;;;16.80;4.93;;;4.70;95.90;;;;;;5036133;28;20021;-68
2023/02/01 10:54:42;;;;;;;11.93;4.05;;;4.90;95.90;;;;;;5045102;28;20087;-68
2023/02/01 10:57:20;;;;;;;16.38;4.22;;;5.10;95.00;;;;;;5038827;28;20030;-68
2023/02/01 10:59:46;;;;;;;15.02;3.85;;;4.90;95.10;;;;;;5041023;28;20029;-68
2023/02/01 11:02:30;;;;;;;12.70;3.80;;;4.70;95.70;;;;;;5048525;28;20075;-69
2023/02/01 11:05:03;;;;;;;9.75;3.22;;;4.50;95.90;;;;;;5034661;28;20060;-68
2023/02/01 11:07:29;;;;;;;10.88;3.60;;;4.30;96.30;;;;;;5035128;28;20025;-68
2023/02/01 11:09:57;;;;;;;13.77;3.80;;;4.30;96.70;;;;;;5052959;28;20029;-68
2023/02/01 11:12:37;;;;;;;10.60;3.53;;;4.50;97.10;;;;;;5051940;28;20415;-68
2023/02/01 11:15:21;;;;;;;11.90;3.30;;;4.50;95.70;;;;;;5055039;28;20326;-68
2023/02/01 11:17:56;;;;;;;10.63;3.17;;;4.50;96.00;;;;;;5052144;28;20036;-69
2023/02/01 11:20:33;;;;;;;15.40;3.75;;;4.40;96.20;;;;;;5045816;28;20029;-69
2023/02/01 11:22:59;;;;;;;9.20;3.17;;;4.40;96.70;;;;;;5036673;28;20045;-69
2023/02/01 11:25:25;;;;;;;11.82;3.30;;;4.50;96.30;;;;;;5048141;28;20037;-69
2023/02/01 11:27:54;;;;;;;9.43;2.92;;;4.40;96.50;;;;;;5054194;28;20028;-69
2023/02/01 11:30:33;;;;;;;13.15;3.42;;;4.30;96.90;;;;;;5059097;28;20142;-69
2023/02/01 11:33:03;;;;;;;12.30;3.20;;;4.30;97.30;;;;;;5050132;28;20433;-69
2023/02/01 11:35:30;;;;;;;9.90;3.35;;;4.20;97.50;;;;;;5057586;28;20025;-69
2023/02/01 11:37:58;;;;;;;11.20;2.92;;;4.00;97.40;;;;;;5057136;28;20032;-69
2023/02/01 11:40:37;;;;;;;12.48;3.28;;;3.90;97.60;;;;;;5042750;28;20029;-69
2023/02/01 11:43:13;;;;;;;11.57;3.17;;;3.80;97.90;;;;;;5038899;28;20053;-69
2023/02/01 11:45:39;;;;;;;12.95;3.42;;;3.70;98.00;;;;;;5048561;28;20029;-69
2023/02/01 11:48:14;;;;;;;9.63;3.50;;;3.70;98.00;;;;;;5038544;28;20033;-69
2023/02/01 11:51:10;;;;;;;12.18;3.60;;;3.60;98.00;;;;;;5038864;28;20079;-69
2023/02/01 11:54:01;;;;;;;11.50;4.00;;;3.60;98.00;;;;;;5040914;28;20155;-69
2023/02/01 11:56:48;;;;;;;11.30;4.38;;;3.60;98.00;;;;;;5042584;28;20410;-69
2023/02/01 11:59:31;;;;;;;9.20;3.25;;;3.70;98.00;;;;;;5039395;28;20029;-69
2023/02/01 12:02:43;;;;;;;9.88;3.45;;;3.70;98.00;;;;;;5038939;28;20029;-69
2023/02/01 12:05:40;;;;;;;14.25;4.93;;;3.60;98.00;;;;;;5050100;28;20435;-69
2023/02/01 12:08:25;;;;;;;21.77;10.27;;;3.60;98.00;;;;;;5043453;28;20053;-68
2023/02/01 12:11:01;;;;;;;29.63;14.32;;;3.60;98.00;;;;;;5036827;28;20363;-68
2023/02/01 12:13:53;;;;;;;13.27;4.25;;;3.60;98.00;;;;;;5038712;28;20414;-68
2023/02/01 12:16:45;;;;;;;12.23;3.65;;;3.60;98.00;;;;;;5032012;28;20057;-68
2023/02/01 12:19:16;;;;;;;9.30;3.80;;;3.60;98.00;;;;;;5052720;28;20032;-68
2023/02/01 12:22:01;;;;;;;14.15;4.72;;;3.60;98.00;;;;;;5043187;28;20075;-68
2023/02/01 12:24:33;;;;;;;12.48;4.53;;;3.60;98.00;;;;;;5038597;28;20065;-68
2023/02/01 12:27:22;;;;;;;11.63;5.90;;;3.60;98.00;;;;;;5056575;28;20068;-69
2023/02/01 12:30:18;;;;;;;15.88;5.43;;;3.60;98.00;;;;;;5049667;28;20029;-68
2023/02/01 12:33:01;;;;;;;17.35;5.38;;;3.60;98.00;;;;;;5036317;28;20299;-68
2023/02/01 12:35:51;;;;;;;18.55;5.93;;;3.60;98.00;;;;;;5040644;28;20392;-68
2023/02/01 12:38:45;;;;;;;14.02;4.20;;;3.60;98.00;;;;;;5040783;28;20437;-68
2023/02/01 12:41:23;;;;;;;17.92;7.07;;;3.70;98.00;;;;;;5035814;28;20022;-68
2023/02/01 12:44:11;;;;;;;12.75;4.00;;;3.60;98.00;;;;;;5040431;28;20029;-68
2023/02/01 12:46:46;;;;;;;11.25;3.53;;;3.70;97.90;;;;;;5037247;28;20061;-68
2023/02/01 12:49:18;;;;;;;16.23;4.32;;;3.70;97.60;;;;;;5039637;28;20163;-68
2023/02/01 12:51:48;;;;;;;13.25;4.22;;;3.70;97.70;;;;;;5038971;28;20067;-68
2023/02/01 12:54:34;;;;;;;11.57;4.03;;;3.70;98.00;;;;;;5038927;28;20025;-68
2023/02/01 12:57:12;;;;;;;12.25;5.85;;;3.60;98.00;;;;;;5051144;28;20029;-68
2023/02/01 12:59:59;;;;;;;15.07;5.15;;;3.60;98.00;;;;;;5037220;28;20095;-68
2023/02/01 13:02:58;;;;;;;12.65;3.88;;;3.60;98.00;;;;;;5056867;28;20112;-68
2023/02/01 13:05:31;;;;;;;10.45;4.13;;;3.60;98.00;;;;;;5042545;28;20032;-68
2023/02/01 13:08:17;;;;;;;15.32;4.75;;;3.70;97.90;;;;;;5051918;28;20024;-68
2023/02/01 13:10:50;;;;;;;17.25;5.78;;;3.70;98.00;;;;;;5036380;28;20036;-68
2023/02/01 13:13:28;;;;;;;16.20;4.03;;;3.70;97.90;;;;;;5041390;28;20026;-68
2023/02/01 13:16:05;;;;;;;11.63;5.07;;;3.70;97.20;;;;;;5042693;28;20025;-68
2023/02/01 13:18:41;;;;;;;15.60;5.38;;;3.70;96.70;;;;;;5041859;28;20367;-67
2023/02/01 13:21:25;;;;;;;16.70;4.53;;;3.70;96.50;;;;;;5035662;28;20049;-67
2023/02/01 13:23:52;;;;;;;15.43;5.20;;;3.60;96.60;;;;;;5035559;28;20373;-68
2023/02/01 13:26:18;;;;;;;17.88;5.93;;;3.60;96.60;;;;;;5037512;28;20021;-68
2023/02/01 13:29:06;;;;;;;19.60;5.40;;;3.60;96.40;;;;;;5048530;28;20067;-68
2023/02/01 13:31:36;;;;;;;14.43;4.53;;;3.60;96.70;;;;;;5037507;28;20060;-67
2023/02/01 13:34:29;;;;;;;16.27;6.63;;;3.60;96.30;;;;;;5035665;28;20026;-67
2023/02/01 13:37:36;;;;;;;18.48;6.55;;;3.60;96.30;;;;;;5042815;28;20024;-67
2023/02/01 13:40:22;;;;;;;20.73;9.35;;;3.60;96.60;;;;;;5028599;28;20033;-67
2023/02/01 13:42:58;;;;;;;18.33;6.45;;;3.50;96.70;;;;;;5036360;28;20018;-67
2023/02/01 13:45:34;;;;;;;19.92;8.50;;;3.50;96.70;;;;;;5036830;28;20353;-67